sensor_id;sensor_type;location;lat;lon;timestamp;pressure;altitude;pressure_sealevel;temperature;humidity
9462;BME280;4769;42.660;23.262;2023-08-12T00:01:17;94567.06;;;19.21;77.61
9462;BME280;4769;42.660;23.262;2023-08-12T00:03:43;94563.28;;;19.27;76.93
9462;BME280;4769;42.660;23.262;2023-08-12T00:06:09;94567.06;;;19.26;77.49
9462;BME280;4769;42.660;23.262;2023-08-12T00:08:34;94568.03;;;19.35;77.17
9462;BME280;4769;42.660;23.262;2023-08-12T00:11:00;94566.56;;;19.19;76.57
9462;BME280;4769;42.660;23.262;2023-08-12T00:13:26;94557.63;;;19.33;76.31
9462;BME280;4769;42.660;23.262;2023-08-12T00:15:54;94551.81;;;19.26;76.08
9462;BME280;4769;42.660;23.262;2023-08-12T00:18:21;94552.75;;;19.40;76.69
9462;BME280;4769;42.660;23.262;2023-08-12T00:20:47;94551.19;;;19.34;75.31
9462;BME280;4769;42.660;23.262;2023-08-12T00:23:13;94561.88;;;19.06;77.70
9462;BME280;4769;42.660;23.262;2023-08-12T00:25:38;94559.91;;;19.16;77.05
9462;BME280;4769;42.660;23.262;2023-08-12T00:28:05;94555.34;;;19.17;76.37
9462;BME280;4769;42.660;23.262;2023-08-12T00:30:30;94558.06;;;19.12;77.69
9462;BME280;4769;42.660;23.262;2023-08-12T00:32:59;94543.72;;;19.03;77.89
9462;BME280;4769;42.660;23.262;2023-08-12T00:35:24;94555.06;;;18.90;78.31
9462;BME280;4769;42.660;23.262;2023-08-12T00:37:50;94557.84;;;19.08;77.52
9462;BME280;4769;42.660;23.262;2023-08-12T00:40:16;94552.69;;;19.17;77.67
9462;BME280;4769;42.660;23.262;2023-08-12T00:42:42;94549.97;;;18.93;78.76
9462;BME280;4769;42.660;23.262;2023-08-12T00:45:09;94543.41;;;19.09;78.65
9462;BME280;4769;42.660;23.262;2023-08-12T00:47:35;94548.50;;;19.06;78.28
9462;BME280;4769;42.660;23.262;2023-08-12T00:50:05;94554.25;;;19.23;76.63
9462;BME280;4769;42.660;23.262;2023-08-12T00:52:31;94549.88;;;19.03;78.81
9462;BME280;4769;42.660;23.262;2023-08-12T00:54:57;94551.38;;;19.14;78.50
9462;BME280;4769;42.660;23.262;2023-08-12T00:57:22;94549.69;;;19.23;75.71
9462;BME280;4769;42.660;23.262;2023-08-12T00:59:49;94541.59;;;19.00;77.02
9462;BME280;4769;42.660;23.262;2023-08-12T01:02:15;94547.31;;;18.93;76.68
9462;BME280;4769;42.660;23.262;2023-08-12T01:04:40;94546.03;;;18.81;77.82
9462;BME280;4769;42.660;23.262;2023-08-12T01:07:09;94535.31;;;18.91;76.95
9462;BME280;4769;42.660;23.262;2023-08-12T01:09:34;94542.13;;;19.02;77.55
9462;BME280;4769;42.660;23.262;2023-08-12T01:12:05;94541.00;;;19.08;75.45
9462;BME280;4769;42.660;23.262;2023-08-12T01:14:37;94541.91;;;18.98;76.27
9462;BME280;4769;42.660;23.262;2023-08-12T01:17:08;94532.09;;;18.89;76.58
9462;BME280;4769;42.660;23.262;2023-08-12T01:19:38;94532.31;;;18.92;75.49
9462;BME280;4769;42.660;23.262;2023-08-12T01:22:09;94536.19;;;19.10;74.50
9462;BME280;4769;42.660;23.262;2023-08-12T01:24:40;94536.41;;;18.85;73.88
9462;BME280;4769;42.660;23.262;2023-08-12T01:27:07;94538.00;;;18.86;74.78
9462;BME280;4769;42.660;23.262;2023-08-12T01:29:33;94537.66;;;18.92;74.93
9462;BME280;4769;42.660;23.262;2023-08-12T01:32:06;94530.50;;;18.88;73.66
9462;BME280;4769;42.660;23.262;2023-08-12T01:34:38;94537.44;;;18.60;75.42
9462;BME280;4769;42.660;23.262;2023-08-12T01:37:05;94535.56;;;18.56;74.97
9462;BME280;4769;42.660;23.262;2023-08-12T01:39:34;94529.97;;;18.57;75.34
9462;BME280;4769;42.660;23.262;2023-08-12T01:42:04;94530.91;;;18.38;75.41
9462;BME280;4769;42.660;23.262;2023-08-12T01:44:30;94533.03;;;18.41;75.79
9462;BME280;4769;42.660;23.262;2023-08-12T01:46:56;94532.69;;;18.52;75.41
9462;BME280;4769;42.660;23.262;2023-08-12T01:49:21;94530.25;;;18.56;76.10
9462;BME280;4769;42.660;23.262;2023-08-12T01:51:47;94530.75;;;18.58;75.43
9462;BME280;4769;42.660;23.262;2023-08-12T01:54:13;94539.72;;;18.38;76.11
9462;BME280;4769;42.660;23.262;2023-08-12T01:56:38;94539.91;;;18.47;74.94
9462;BME280;4769;42.660;23.262;2023-08-12T01:59:07;94525.84;;;18.36;74.99
9462;BME280;4769;42.660;23.262;2023-08-12T02:01:33;94521.59;;;18.30;74.70
9462;BME280;4769;42.660;23.262;2023-08-12T02:03:58;94530.69;;;18.29;75.52
9462;BME280;4769;42.660;23.262;2023-08-12T02:06:24;94528.22;;;18.38;75.34
9462;BME280;4769;42.660;23.262;2023-08-12T02:08:50;94540.50;;;18.39;75.87
9462;BME280;4769;42.660;23.262;2023-08-12T02:11:15;94540.94;;;18.07;75.97
9462;BME280;4769;42.660;23.262;2023-08-12T02:13:41;94531.50;;;18.25;75.60
9462;BME280;4769;42.660;23.262;2023-08-12T02:16:09;94528.28;;;18.33;74.39
9462;BME280;4769;42.660;23.262;2023-08-12T02:18:35;94540.81;;;18.27;74.37
9462;BME280;4769;42.660;23.262;2023-08-12T02:21:01;94537.66;;;18.20;75.29
9462;BME280;4769;42.660;23.262;2023-08-12T02:23:26;94535.47;;;18.27;74.53
9462;BME280;4769;42.660;23.262;2023-08-12T02:25:52;94537.13;;;18.23;74.96
9462;BME280;4769;42.660;23.262;2023-08-12T02:28:18;94524.59;;;18.19;75.15
9462;BME280;4769;42.660;23.262;2023-08-12T02:30:43;94528.03;;;18.24;74.78
9462;BME280;4769;42.660;23.262;2023-08-12T02:33:12;94528.81;;;18.35;75.46
9462;BME280;4769;42.660;23.262;2023-08-12T02:35:38;94538.41;;;18.31;74.54
9462;BME280;4769;42.660;23.262;2023-08-12T02:38:03;94528.06;;;18.19;74.45
9462;BME280;4769;42.660;23.262;2023-08-12T02:40:29;94541.13;;;18.26;75.06
9462;BME280;4769;42.660;23.262;2023-08-12T02:42:55;94539.84;;;18.13;75.46
9462;BME280;4769;42.660;23.262;2023-08-12T02:45:20;94539.25;;;18.21;74.67
9462;BME280;4769;42.660;23.262;2023-08-12T02:47:46;94541.63;;;18.28;74.81
9462;BME280;4769;42.660;23.262;2023-08-12T02:50:14;94543.75;;;18.36;74.18
9462;BME280;4769;42.660;23.262;2023-08-12T02:52:40;94550.13;;;18.40;74.32
9462;BME280;4769;42.660;23.262;2023-08-12T02:55:07;94556.28;;;18.35;73.11
9462;BME280;4769;42.660;23.262;2023-08-12T02:57:32;94554.53;;;18.11;73.66
9462;BME280;4769;42.660;23.262;2023-08-12T02:59:58;94545.66;;;18.25;74.04
9462;BME280;4769;42.660;23.262;2023-08-12T03:02:24;94547.78;;;18.28;73.96
9462;BME280;4769;42.660;23.262;2023-08-12T03:04:50;94535.16;;;18.39;73.61
9462;BME280;4769;42.660;23.262;2023-08-12T03:07:18;94540.53;;;18.29;74.04
9462;BME280;4769;42.660;23.262;2023-08-12T03:09:44;94541.69;;;18.18;74.59
9462;BME280;4769;42.660;23.262;2023-08-12T03:12:09;94547.25;;;18.21;74.13
9462;BME280;4769;42.660;23.262;2023-08-12T03:14:35;94549.00;;;17.97;75.12
9462;BME280;4769;42.660;23.262;2023-08-12T03:17:01;94552.44;;;18.08;74.75
9462;BME280;4769;42.660;23.262;2023-08-12T03:19:26;94554.25;;;18.12;75.01
9462;BME280;4769;42.660;23.262;2023-08-12T03:21:52;94538.75;;;18.19;74.09
9462;BME280;4769;42.660;23.262;2023-08-12T03:24:20;94537.00;;;17.95;74.62
9462;BME280;4769;42.660;23.262;2023-08-12T03:26:46;94541.50;;;17.99;74.36
9462;BME280;4769;42.660;23.262;2023-08-12T03:29:12;94551.44;;;17.94;75.13
9462;BME280;4769;42.660;23.262;2023-08-12T03:31:37;94554.06;;;18.04;74.48
9462;BME280;4769;42.660;23.262;2023-08-12T03:34:03;94541.84;;;17.88;74.71
9462;BME280;4769;42.660;23.262;2023-08-12T03:36:29;94553.78;;;18.05;74.00
9462;BME280;4769;42.660;23.262;2023-08-12T03:38:54;94558.47;;;18.18;74.08
9462;BME280;4769;42.660;23.262;2023-08-12T03:41:23;94545.00;;;18.00;74.08
9462;BME280;4769;42.660;23.262;2023-08-12T03:43:48;94562.34;;;17.97;74.20
9462;BME280;4769;42.660;23.262;2023-08-12T03:46:17;94560.28;;;17.79;75.46
9462;BME280;4769;42.660;23.262;2023-08-12T03:48:43;94562.84;;;18.04;74.71
9462;BME280;4769;42.660;23.262;2023-08-12T03:51:09;94560.38;;;18.18;73.82
9462;BME280;4769;42.660;23.262;2023-08-12T03:53:34;94554.81;;;18.09;73.54
9462;BME280;4769;42.660;23.262;2023-08-12T03:56:00;94558.66;;;17.88;74.13
9462;BME280;4769;42.660;23.262;2023-08-12T03:58:28;94564.66;;;18.14;73.51
9462;BME280;4769;42.660;23.262;2023-08-12T04:00:54;94561.72;;;18.15;73.32
9462;BME280;4769;42.660;23.262;2023-08-12T04:03:20;94545.94;;;18.19;72.99
9462;BME280;4769;42.660;23.262;2023-08-12T04:05:49;94555.47;;;18.30;72.67
9462;BME280;4769;42.660;23.262;2023-08-12T04:08:15;94550.13;;;18.40;72.82
9462;BME280;4769;42.660;23.262;2023-08-12T04:10:44;94561.94;;;18.67;72.06
9462;BME280;4769;42.660;23.262;2023-08-12T04:13:12;94557.13;;;18.64;71.04
9462;BME280;4769;42.660;23.262;2023-08-12T04:15:42;94546.19;;;18.66;71.00
9462;BME280;4769;42.660;23.262;2023-08-12T04:18:07;94555.19;;;18.75;70.36
9462;BME280;4769;42.660;23.262;2023-08-12T04:20:34;94568.09;;;18.96;69.75
9462;BME280;4769;42.660;23.262;2023-08-12T04:22:59;94569.09;;;19.05;69.27
9462;BME280;4769;42.660;23.262;2023-08-12T04:25:25;94571.41;;;18.83;70.18
9462;BME280;4769;42.660;23.262;2023-08-12T04:27:51;94563.78;;;19.00;70.10
9462;BME280;4769;42.660;23.262;2023-08-12T04:30:18;94565.50;;;19.20;68.64
9462;BME280;4769;42.660;23.262;2023-08-12T04:32:46;94572.34;;;19.31;68.50
9462;BME280;4769;42.660;23.262;2023-08-12T04:35:12;94560.00;;;19.35;69.00
9462;BME280;4769;42.660;23.262;2023-08-12T04:37:38;94571.47;;;19.40;69.01
9462;BME280;4769;42.660;23.262;2023-08-12T04:40:05;94570.81;;;19.48;68.44
9462;BME280;4769;42.660;23.262;2023-08-12T04:42:31;94572.28;;;19.64;70.17
9462;BME280;4769;42.660;23.262;2023-08-12T04:44:58;94565.03;;;19.65;70.20
9462;BME280;4769;42.660;23.262;2023-08-12T04:47:24;94574.41;;;19.62;71.33
9462;BME280;4769;42.660;23.262;2023-08-12T04:49:52;94566.78;;;19.51;72.02
9462;BME280;4769;42.660;23.262;2023-08-12T04:52:18;94562.81;;;19.72;71.66
9462;BME280;4769;42.660;23.262;2023-08-12T04:54:44;94548.75;;;19.85;70.84
9462;BME280;4769;42.660;23.262;2023-08-12T04:57:09;94567.47;;;19.85;69.38
9462;BME280;4769;42.660;23.262;2023-08-12T04:59:35;94569.47;;;19.74;68.78
9462;BME280;4769;42.660;23.262;2023-08-12T05:02:01;94559.72;;;19.60;69.01
9462;BME280;4769;42.660;23.262;2023-08-12T05:04:26;94579.09;;;19.75;69.06
9462;BME280;4769;42.660;23.262;2023-08-12T05:06:55;94571.75;;;19.86;69.72
9462;BME280;4769;42.660;23.262;2023-08-12T05:09:20;94563.22;;;19.84;69.79
9462;BME280;4769;42.660;23.262;2023-08-12T05:11:46;94571.91;;;19.94;67.98
9462;BME280;4769;42.660;23.262;2023-08-12T05:14:12;94578.34;;;19.93;68.15
9462;BME280;4769;42.660;23.262;2023-08-12T05:16:37;94577.78;;;19.96;68.50
9462;BME280;4769;42.660;23.262;2023-08-12T05:19:03;94577.66;;;20.06;68.24
9462;BME280;4769;42.660;23.262;2023-08-12T05:21:29;94586.09;;;20.37;68.26
9462;BME280;4769;42.660;23.262;2023-08-12T05:23:57;94579.88;;;20.41;66.36
9462;BME280;4769;42.660;23.262;2023-08-12T05:26:23;94580.59;;;20.47;65.78
9462;BME280;4769;42.660;23.262;2023-08-12T05:28:49;94580.41;;;20.43;66.01
9462;BME280;4769;42.660;23.262;2023-08-12T05:31:14;94582.44;;;20.51;66.66
9462;BME280;4769;42.660;23.262;2023-08-12T05:33:40;94583.00;;;20.48;66.33
9462;BME280;4769;42.660;23.262;2023-08-12T05:36:08;94583.34;;;20.60;66.36
9462;BME280;4769;42.660;23.262;2023-08-12T05:38:34;94597.59;;;20.74;66.14
9462;BME280;4769;42.660;23.262;2023-08-12T05:41:02;94579.00;;;20.83;65.01
9462;BME280;4769;42.660;23.262;2023-08-12T05:43:27;94589.63;;;20.88;64.20
9462;BME280;4769;42.660;23.262;2023-08-12T05:45:53;94586.94;;;20.88;64.76
9462;BME280;4769;42.660;23.262;2023-08-12T05:48:19;94599.03;;;21.04;63.96
9462;BME280;4769;42.660;23.262;2023-08-12T05:50:44;94596.56;;;20.89;63.73
9462;BME280;4769;42.660;23.262;2023-08-12T05:53:10;94591.47;;;20.92;63.75
9462;BME280;4769;42.660;23.262;2023-08-12T05:55:36;94591.81;;;21.04;64.05
9462;BME280;4769;42.660;23.262;2023-08-12T05:58:04;94586.84;;;21.11;63.91
9462;BME280;4769;42.660;23.262;2023-08-12T06:00:30;94579.88;;;21.29;62.78
9462;BME280;4769;42.660;23.262;2023-08-12T06:02:56;94582.56;;;21.42;62.70
9462;BME280;4769;42.660;23.262;2023-08-12T06:05:22;94579.31;;;21.13;62.98
9462;BME280;4769;42.660;23.262;2023-08-12T06:07:47;94580.94;;;21.28;62.92
9462;BME280;4769;42.660;23.262;2023-08-12T06:10:13;94581.44;;;21.30;62.21
9462;BME280;4769;42.660;23.262;2023-08-12T06:12:39;94570.53;;;21.40;61.90
9462;BME280;4769;42.660;23.262;2023-08-12T06:15:08;94575.44;;;21.65;61.49
9462;BME280;4769;42.660;23.262;2023-08-12T06:17:33;94566.59;;;21.64;61.67
9462;BME280;4769;42.660;23.262;2023-08-12T06:19:59;94560.41;;;21.64;61.60
9462;BME280;4769;42.660;23.262;2023-08-12T06:22:25;94565.50;;;21.65;61.55
9462;BME280;4769;42.660;23.262;2023-08-12T06:24:50;94571.53;;;21.57;62.27
9462;BME280;4769;42.660;23.262;2023-08-12T06:27:16;94564.75;;;21.78;61.11
9462;BME280;4769;42.660;23.262;2023-08-12T06:29:42;94561.81;;;21.61;65.83
9462;BME280;4769;42.660;23.262;2023-08-12T06:32:10;94563.63;;;21.93;62.29
9462;BME280;4769;42.660;23.262;2023-08-12T06:34:36;94553.00;;;21.74;62.19
9462;BME280;4769;42.660;23.262;2023-08-12T06:37:02;94555.53;;;22.33;64.36
9462;BME280;4769;42.660;23.262;2023-08-12T06:39:27;94555.63;;;22.77;58.60
9462;BME280;4769;42.660;23.262;2023-08-12T06:41:53;94550.59;;;22.62;59.20
9462;BME280;4769;42.660;23.262;2023-08-12T06:44:19;94557.09;;;22.61;59.85
9462;BME280;4769;42.660;23.262;2023-08-12T06:46:44;94546.56;;;22.38;59.86
9462;BME280;4769;42.660;23.262;2023-08-12T06:49:13;94550.00;;;22.87;59.67
9462;BME280;4769;42.660;23.262;2023-08-12T06:51:38;94543.03;;;23.30;57.55
9462;BME280;4769;42.660;23.262;2023-08-12T06:54:04;94538.28;;;23.66;57.68
9462;BME280;4769;42.660;23.262;2023-08-12T06:56:30;94545.72;;;23.30;57.10
9462;BME280;4769;42.660;23.262;2023-08-12T06:58:56;94547.03;;;23.33;58.23
9462;BME280;4769;42.660;23.262;2023-08-12T07:01:21;94542.22;;;23.52;55.80
9462;BME280;4769;42.660;23.262;2023-08-12T07:03:47;94533.53;;;24.03;55.48
9462;BME280;4769;42.660;23.262;2023-08-12T07:06:15;94548.13;;;24.02;55.79
9462;BME280;4769;42.660;23.262;2023-08-12T07:08:41;94544.91;;;24.73;54.05
9462;BME280;4769;42.660;23.262;2023-08-12T07:11:07;94542.63;;;25.26;52.62
9462;BME280;4769;42.660;23.262;2023-08-12T07:13:33;94542.59;;;25.51;50.55
9462;BME280;4769;42.660;23.262;2023-08-12T07:15:58;94543.91;;;25.45;49.11
9462;BME280;4769;42.660;23.262;2023-08-12T07:18:24;94544.28;;;25.27;49.87
9462;BME280;4769;42.660;23.262;2023-08-12T07:20:50;94543.91;;;25.20;50.36
9462;BME280;4769;42.660;23.262;2023-08-12T07:23:18;94539.66;;;25.36;49.79
9462;BME280;4769;42.660;23.262;2023-08-12T07:25:45;94544.16;;;25.61;50.10
9462;BME280;4769;42.660;23.262;2023-08-12T07:28:11;94540.38;;;25.91;48.12
9462;BME280;4769;42.660;23.262;2023-08-12T07:30:37;94540.09;;;25.92;47.60
9462;BME280;4769;42.660;23.262;2023-08-12T07:33:03;94540.78;;;26.10;46.41
9462;BME280;4769;42.660;23.262;2023-08-12T07:35:29;94546.72;;;25.57;45.97
9462;BME280;4769;42.660;23.262;2023-08-12T07:37:54;94536.34;;;25.68;46.14
9462;BME280;4769;42.660;23.262;2023-08-12T07:40:23;94541.50;;;25.90;44.98
9462;BME280;4769;42.660;23.262;2023-08-12T07:42:48;94542.34;;;25.27;46.11
9462;BME280;4769;42.660;23.262;2023-08-12T07:45:14;94542.81;;;24.53;47.39
9462;BME280;4769;42.660;23.262;2023-08-12T07:47:40;94540.97;;;24.87;47.84
9462;BME280;4769;42.660;23.262;2023-08-12T07:50:06;94537.13;;;24.97;48.10
9462;BME280;4769;42.660;23.262;2023-08-12T07:52:32;94529.22;;;25.63;46.88
9462;BME280;4769;42.660;23.262;2023-08-12T07:54:58;94521.38;;;25.79;46.56
9462;BME280;4769;42.660;23.262;2023-08-12T07:57:26;94531.13;;;25.63;47.33
9462;BME280;4769;42.660;23.262;2023-08-12T07:59:52;94518.50;;;26.42;46.13
9462;BME280;4769;42.660;23.262;2023-08-12T08:02:17;94515.16;;;26.86;44.19
9462;BME280;4769;42.660;23.262;2023-08-12T08:04:43;94517.81;;;26.74;44.16
9462;BME280;4769;42.660;23.262;2023-08-12T08:07:10;94520.13;;;26.34;44.23
9462;BME280;4769;42.660;23.262;2023-08-12T08:09:36;94518.88;;;26.61;44.25
9462;BME280;4769;42.660;23.262;2023-08-12T08:12:02;94514.91;;;26.79;42.86
9462;BME280;4769;42.660;23.262;2023-08-12T08:14:30;94515.91;;;27.07;42.36
9462;BME280;4769;42.660;23.262;2023-08-12T08:16:56;94511.75;;;27.30;41.27
9462;BME280;4769;42.660;23.262;2023-08-12T08:19:22;94511.84;;;27.01;41.46
9462;BME280;4769;42.660;23.262;2023-08-12T08:21:47;94500.63;;;26.49;42.22
9462;BME280;4769;42.660;23.262;2023-08-12T08:24:13;94517.00;;;26.94;42.36
9462;BME280;4769;42.660;23.262;2023-08-12T08:26:39;94512.91;;;26.67;42.85
9462;BME280;4769;42.660;23.262;2023-08-12T08:29:05;94514.50;;;26.89;42.06
9462;BME280;4769;42.660;23.262;2023-08-12T08:31:33;94502.63;;;27.34;40.41
9462;BME280;4769;42.660;23.262;2023-08-12T08:33:59;94509.94;;;28.14;40.43
9462;BME280;4769;42.660;23.262;2023-08-12T08:36:24;94496.75;;;28.76;38.24
9462;BME280;4769;42.660;23.262;2023-08-12T08:38:50;94498.63;;;29.43;37.02
9462;BME280;4769;42.660;23.262;2023-08-12T08:41:16;94496.41;;;29.76;35.54
9462;BME280;4769;42.660;23.262;2023-08-12T08:43:43;94497.28;;;29.21;35.81
9462;BME280;4769;42.660;23.262;2023-08-12T08:46:09;94494.78;;;28.49;37.22
9462;BME280;4769;42.660;23.262;2023-08-12T08:48:38;94487.69;;;28.45;36.80
9462;BME280;4769;42.660;23.262;2023-08-12T08:51:05;94480.50;;;28.64;37.16
9462;BME280;4769;42.660;23.262;2023-08-12T08:53:33;94491.63;;;28.99;35.71
9462;BME280;4769;42.660;23.262;2023-08-12T08:56:00;94484.78;;;29.05;34.71
9462;BME280;4769;42.660;23.262;2023-08-12T08:58:25;94483.34;;;29.38;35.11
9462;BME280;4769;42.660;23.262;2023-08-12T09:00:51;94488.44;;;29.40;34.45
9462;BME280;4769;42.660;23.262;2023-08-12T09:03:17;94473.38;;;29.27;34.73
9462;BME280;4769;42.660;23.262;2023-08-12T09:05:46;94484.75;;;29.60;34.71
9462;BME280;4769;42.660;23.262;2023-08-12T09:08:13;94475.50;;;30.11;34.35
9462;BME280;4769;42.660;23.262;2023-08-12T09:10:39;94475.78;;;30.56;33.54
9462;BME280;4769;42.660;23.262;2023-08-12T09:13:05;94464.16;;;30.40;32.47
9462;BME280;4769;42.660;23.262;2023-08-12T09:15:30;94467.81;;;30.13;32.82
9462;BME280;4769;42.660;23.262;2023-08-12T09:17:56;94468.13;;;29.34;34.20
9462;BME280;4769;42.660;23.262;2023-08-12T09:20:22;94458.00;;;29.62;33.50
9462;BME280;4769;42.660;23.262;2023-08-12T09:22:55;94459.81;;;30.04;33.47
9462;BME280;4769;42.660;23.262;2023-08-12T09:25:21;94466.97;;;30.62;33.03
9462;BME280;4769;42.660;23.262;2023-08-12T09:27:47;94455.75;;;30.83;32.76
9462;BME280;4769;42.660;23.262;2023-08-12T09:30:13;94458.06;;;30.81;32.09
9462;BME280;4769;42.660;23.262;2023-08-12T09:32:39;94453.19;;;31.09;32.07
9462;BME280;4769;42.660;23.262;2023-08-12T09:35:10;94446.16;;;29.70;33.37
9462;BME280;4769;42.660;23.262;2023-08-12T09:37:41;94452.75;;;30.69;32.58
9462;BME280;4769;42.660;23.262;2023-08-12T09:40:10;94441.31;;;31.39;31.36
9462;BME280;4769;42.660;23.262;2023-08-12T09:42:44;94432.84;;;31.44;30.92
9462;BME280;4769;42.660;23.262;2023-08-12T09:45:11;94440.63;;;31.23;30.94
9462;BME280;4769;42.660;23.262;2023-08-12T09:47:36;94440.78;;;31.53;30.91
9462;BME280;4769;42.660;23.262;2023-08-12T09:50:03;94437.91;;;32.14;29.55
9462;BME280;4769;42.660;23.262;2023-08-12T09:52:28;94432.28;;;32.55;29.32
9462;BME280;4769;42.660;23.262;2023-08-12T09:54:56;94430.34;;;32.56;29.55
9462;BME280;4769;42.660;23.262;2023-08-12T09:57:27;94428.50;;;32.37;29.17
9462;BME280;4769;42.660;23.262;2023-08-12T09:59:56;94420.69;;;32.36;29.12
9462;BME280;4769;42.660;23.262;2023-08-12T10:02:23;94429.13;;;32.53;29.26
9462;BME280;4769;42.660;23.262;2023-08-12T10:04:50;94425.13;;;32.77;28.89
9462;BME280;4769;42.660;23.262;2023-08-12T10:07:19;94428.03;;;32.61;28.35
9462;BME280;4769;42.660;23.262;2023-08-12T10:09:46;94413.84;;;32.78;28.32
9462;BME280;4769;42.660;23.262;2023-08-12T10:12:12;94413.38;;;33.02;27.68
9462;BME280;4769;42.660;23.262;2023-08-12T10:14:40;94406.78;;;33.07;27.21
9462;BME280;4769;42.660;23.262;2023-08-12T10:17:07;94411.06;;;32.75;27.27
9462;BME280;4769;42.660;23.262;2023-08-12T10:19:34;94404.63;;;32.60;27.59
9462;BME280;4769;42.660;23.262;2023-08-12T10:22:02;94397.41;;;32.19;28.00
9462;BME280;4769;42.660;23.262;2023-08-12T10:24:28;94400.91;;;32.16;28.89
9462;BME280;4769;42.660;23.262;2023-08-12T10:26:54;94403.09;;;32.33;28.30
9462;BME280;4769;42.660;23.262;2023-08-12T10:29:20;94401.16;;;32.63;28.85
9462;BME280;4769;42.660;23.262;2023-08-12T10:31:49;94406.25;;;32.94;27.87
9462;BME280;4769;42.660;23.262;2023-08-12T10:34:19;94401.28;;;33.40;27.27
9462;BME280;4769;42.660;23.262;2023-08-12T10:36:45;94397.69;;;32.96;27.46
9462;BME280;4769;42.660;23.262;2023-08-12T10:39:11;94387.72;;;32.48;28.07
9462;BME280;4769;42.660;23.262;2023-08-12T10:41:38;94385.88;;;33.25;27.69
9462;BME280;4769;42.660;23.262;2023-08-12T10:44:07;94383.59;;;33.70;26.15
9462;BME280;4769;42.660;23.262;2023-08-12T10:46:34;94376.22;;;33.78;26.01
9462;BME280;4769;42.660;23.262;2023-08-12T10:49:06;94368.88;;;33.85;26.00
9462;BME280;4769;42.660;23.262;2023-08-12T10:51:40;94375.38;;;33.70;25.82
9462;BME280;4769;42.660;23.262;2023-08-12T10:54:20;94369.03;;;33.59;25.24
9462;BME280;4769;42.660;23.262;2023-08-12T10:57:05;94366.31;;;34.10;24.83
9462;BME280;4769;42.660;23.262;2023-08-12T10:59:52;94368.81;;;34.29;25.14
9462;BME280;4769;42.660;23.262;2023-08-12T11:02:19;94369.84;;;34.78;24.98
9462;BME280;4769;42.660;23.262;2023-08-12T11:04:52;94358.94;;;35.06;23.90
9462;BME280;4769;42.660;23.262;2023-08-12T11:07:18;94359.44;;;35.40;24.20
9462;BME280;4769;42.660;23.262;2023-08-12T11:09:45;94362.19;;;35.47;24.07
9462;BME280;4769;42.660;23.262;2023-08-12T11:12:11;94343.31;;;35.21;23.52
9462;BME280;4769;42.660;23.262;2023-08-12T11:14:47;94348.44;;;35.29;23.57
9462;BME280;4769;42.660;23.262;2023-08-12T11:17:14;94355.53;;;35.51;23.78
9462;BME280;4769;42.660;23.262;2023-08-12T11:19:41;94351.59;;;35.66;22.87
9462;BME280;4769;42.660;23.262;2023-08-12T11:22:10;94346.47;;;35.26;22.77
9462;BME280;4769;42.660;23.262;2023-08-12T11:24:37;94339.84;;;35.48;22.85
9462;BME280;4769;42.660;23.262;2023-08-12T11:27:04;94342.59;;;35.45;22.66
9462;BME280;4769;42.660;23.262;2023-08-12T11:29:29;94349.09;;;34.13;23.92
9462;BME280;4769;42.660;23.262;2023-08-12T11:31:55;94338.31;;;33.76;24.92
9462;BME280;4769;42.660;23.262;2023-08-12T11:34:21;94334.47;;;33.84;25.13
9462;BME280;4769;42.660;23.262;2023-08-12T11:36:47;94333.72;;;34.59;24.50
9462;BME280;4769;42.660;23.262;2023-08-12T11:39:15;94328.47;;;35.39;23.77
9462;BME280;4769;42.660;23.262;2023-08-12T11:41:41;94336.47;;;34.62;23.01
9462;BME280;4769;42.660;23.262;2023-08-12T11:44:11;94331.44;;;33.49;23.90
9462;BME280;4769;42.660;23.262;2023-08-12T11:46:37;94334.97;;;32.40;24.41
9462;BME280;4769;42.660;23.262;2023-08-12T11:49:03;94334.75;;;31.48;26.48
9462;BME280;4769;42.660;23.262;2023-08-12T11:51:29;94334.34;;;31.46;26.80
9462;BME280;4769;42.660;23.262;2023-08-12T11:53:55;94335.66;;;32.08;24.87
9462;BME280;4769;42.660;23.262;2023-08-12T11:56:25;94318.03;;;32.94;23.69
9462;BME280;4769;42.660;23.262;2023-08-12T11:58:51;94318.69;;;33.64;22.06
9462;BME280;4769;42.660;23.262;2023-08-12T12:01:17;94318.09;;;34.66;21.71
9462;BME280;4769;42.660;23.262;2023-08-12T12:03:43;94317.50;;;35.71;20.99
9462;BME280;4769;42.660;23.262;2023-08-12T12:06:08;94317.66;;;36.81;19.93
9462;BME280;4769;42.660;23.262;2023-08-12T12:08:34;94307.25;;;37.17;19.42
9462;BME280;4769;42.660;23.262;2023-08-12T12:11:04;94302.06;;;37.29;19.28
9462;BME280;4769;42.660;23.262;2023-08-12T12:13:32;94307.47;;;36.71;19.69
9462;BME280;4769;42.660;23.262;2023-08-12T12:15:58;94317.09;;;35.23;21.42
9462;BME280;4769;42.660;23.262;2023-08-12T12:18:25;94300.41;;;34.43;22.44
9462;BME280;4769;42.660;23.262;2023-08-12T12:20:54;94319.34;;;34.04;23.11
9462;BME280;4769;42.660;23.262;2023-08-12T12:23:27;94312.13;;;33.79;23.06
9462;BME280;4769;42.660;23.262;2023-08-12T12:25:57;94306.22;;;33.26;23.65
9462;BME280;4769;42.660;23.262;2023-08-12T12:28:23;94310.09;;;32.19;26.16
9462;BME280;4769;42.660;23.262;2023-08-12T12:30:52;94318.78;;;31.72;27.70
9462;BME280;4769;42.660;23.262;2023-08-12T12:33:17;94298.81;;;31.91;27.81
9462;BME280;4769;42.660;23.262;2023-08-12T12:35:49;94300.63;;;33.12;26.34
9462;BME280;4769;42.660;23.262;2023-08-12T12:38:14;94293.56;;;34.05;25.55
9462;BME280;4769;42.660;23.262;2023-08-12T12:40:40;94302.97;;;35.18;24.27
9462;BME280;4769;42.660;23.262;2023-08-12T12:43:06;94291.19;;;36.22;23.48
9462;BME280;4769;42.660;23.262;2023-08-12T12:45:31;94295.72;;;36.60;22.04
9462;BME280;4769;42.660;23.262;2023-08-12T12:48:00;94292.81;;;36.99;21.33
9462;BME280;4769;42.660;23.262;2023-08-12T12:50:25;94290.38;;;36.11;22.32
9462;BME280;4769;42.660;23.262;2023-08-12T12:52:51;94288.53;;;34.18;24.91
9462;BME280;4769;42.660;23.262;2023-08-12T12:55:17;94292.75;;;32.34;26.68
9462;BME280;4769;42.660;23.262;2023-08-12T12:57:42;94296.56;;;31.97;27.21
9462;BME280;4769;42.660;23.262;2023-08-12T13:00:09;94287.88;;;32.47;26.82
9462;BME280;4769;42.660;23.262;2023-08-12T13:02:35;94283.22;;;32.84;26.01
9462;BME280;4769;42.660;23.262;2023-08-12T13:05:03;94287.06;;;33.23;25.92
9462;BME280;4769;42.660;23.262;2023-08-12T13:07:29;94287.31;;;32.05;27.38